sensor_id;sensor_type;location;lat;lon;timestamp;temperature;humidity
13440;DHT22;6792;57.698;11.946;2023-06-22T00:01:09;24.70;48.90
13440;DHT22;6792;57.698;11.946;2023-06-22T00:03:38;24.70;49.00
13440;DHT22;6792;57.698;11.946;2023-06-22T00:06:07;24.70;48.90
13440;DHT22;6792;57.698;11.946;2023-06-22T00:08:36;24.70;48.90
13440;DHT22;6792;57.698;11.946;2023-06-22T00:11:05;24.70;48.40
13440;DHT22;6792;57.698;11.946;2023-06-22T00:13:34;24.70;49.00
13440;DHT22;6792;57.698;11.946;2023-06-22T00:16:04;24.70;49.00
13440;DHT22;6792;57.698;11.946;2023-06-22T00:18:33;24.70;49.00
13440;DHT22;6792;57.698;11.946;2023-06-22T00:21:02;24.70;49.10
13440;DHT22;6792;57.698;11.946;2023-06-22T00:23:33;24.70;49.20
13440;DHT22;6792;57.698;11.946;2023-06-22T00:26:02;24.70;49.20
13440;DHT22;6792;57.698;11.946;2023-06-22T00:28:31;24.70;49.30
13440;DHT22;6792;57.698;11.946;2023-06-22T00:31:00;24.70;49.30
13440;DHT22;6792;57.698;11.946;2023-06-22T00:33:29;24.60;49.30
13440;DHT22;6792;57.698;11.946;2023-06-22T00:35:59;24.60;49.30
13440;DHT22;6792;57.698;11.946;2023-06-22T00:38:30;24.50;49.50
13440;DHT22;6792;57.698;11.946;2023-06-22T00:40:59;24.50;49.70
13440;DHT22;6792;57.698;11.946;2023-06-22T00:43:28;24.50;49.60
13440;DHT22;6792;57.698;11.946;2023-06-22T00:45:58;24.60;49.60
13440;DHT22;6792;57.698;11.946;2023-06-22T00:48:27;24.60;49.50
13440;DHT22;6792;57.698;11.946;2023-06-22T00:50:57;24.60;49.50
13440;DHT22;6792;57.698;11.946;2023-06-22T00:53:26;24.70;49.50
13440;DHT22;6792;57.698;11.946;2023-06-22T00:55:56;24.70;49.50
13440;DHT22;6792;57.698;11.946;2023-06-22T00:58:27;24.70;49.50
13440;DHT22;6792;57.698;11.946;2023-06-22T01:00:56;24.70;49.50
13440;DHT22;6792;57.698;11.946;2023-06-22T01:03:25;24.70;49.50
13440;DHT22;6792;57.698;11.946;2023-06-22T01:05:56;24.60;49.40
13440;DHT22;6792;57.698;11.946;2023-06-22T01:08:33;24.60;49.50
13440;DHT22;6792;57.698;11.946;2023-06-22T01:11:04;24.60;49.50
13440;DHT22;6792;57.698;11.946;2023-06-22T01:13:37;24.60;49.50
13440;DHT22;6792;57.698;11.946;2023-06-22T01:16:09;24.50;49.50
13440;DHT22;6792;57.698;11.946;2023-06-22T01:18:41;24.50;49.50
13440;DHT22;6792;57.698;11.946;2023-06-22T01:21:14;24.50;49.50
13440;DHT22;6792;57.698;11.946;2023-06-22T01:23:51;24.50;49.60
13440;DHT22;6792;57.698;11.946;2023-06-22T01:26:28;24.50;49.60
13440;DHT22;6792;57.698;11.946;2023-06-22T01:28:57;24.50;49.00
13440;DHT22;6792;57.698;11.946;2023-06-22T01:31:28;24.60;49.70
13440;DHT22;6792;57.698;11.946;2023-06-22T01:34:01;24.50;49.60
13440;DHT22;6792;57.698;11.946;2023-06-22T01:36:32;24.50;49.60
13440;DHT22;6792;57.698;11.946;2023-06-22T01:39:03;24.50;50.30
13440;DHT22;6792;57.698;11.946;2023-06-22T01:41:35;24.50;49.80
13440;DHT22;6792;57.698;11.946;2023-06-22T01:44:06;24.50;49.20
13440;DHT22;6792;57.698;11.946;2023-06-22T01:46:36;24.60;49.80
13440;DHT22;6792;57.698;11.946;2023-06-22T01:49:06;24.60;49.90
13440;DHT22;6792;57.698;11.946;2023-06-22T01:51:36;24.60;49.80
13440;DHT22;6792;57.698;11.946;2023-06-22T01:54:07;24.60;49.90
13440;DHT22;6792;57.698;11.946;2023-06-22T01:56:36;24.60;49.80
13440;DHT22;6792;57.698;11.946;2023-06-22T01:59:09;24.60;49.90
13440;DHT22;6792;57.698;11.946;2023-06-22T02:01:42;24.60;50.00
13440;DHT22;6792;57.698;11.946;2023-06-22T02:04:17;24.60;49.90
13440;DHT22;6792;57.698;11.946;2023-06-22T02:06:46;24.60;50.00
13440;DHT22;6792;57.698;11.946;2023-06-22T02:09:19;24.60;49.50
13440;DHT22;6792;57.698;11.946;2023-06-22T02:11:51;24.60;50.10
13440;DHT22;6792;57.698;11.946;2023-06-22T02:14:23;24.60;50.10
13440;DHT22;6792;57.698;11.946;2023-06-22T02:16:53;24.60;50.00
13440;DHT22;6792;57.698;11.946;2023-06-22T02:19:25;24.60;50.00
13440;DHT22;6792;57.698;11.946;2023-06-22T02:21:55;24.60;50.00
13440;DHT22;6792;57.698;11.946;2023-06-22T02:24:24;24.60;50.10
13440;DHT22;6792;57.698;11.946;2023-06-22T02:26:53;24.60;50.10
13440;DHT22;6792;57.698;11.946;2023-06-22T02:29:22;24.60;50.00
13440;DHT22;6792;57.698;11.946;2023-06-22T02:31:52;24.60;50.00
13440;DHT22;6792;57.698;11.946;2023-06-22T02:34:22;24.60;50.00
13440;DHT22;6792;57.698;11.946;2023-06-22T02:36:51;24.60;49.50
13440;DHT22;6792;57.698;11.946;2023-06-22T02:39:22;24.60;50.10
13440;DHT22;6792;57.698;11.946;2023-06-22T02:41:52;24.50;49.40
13440;DHT22;6792;57.698;11.946;2023-06-22T02:44:22;24.50;50.00
13440;DHT22;6792;57.698;11.946;2023-06-22T02:46:51;24.50;50.10
13440;DHT22;6792;57.698;11.946;2023-06-22T02:49:21;24.50;49.50
13440;DHT22;6792;57.698;11.946;2023-06-22T02:51:51;24.50;50.00
13440;DHT22;6792;57.698;11.946;2023-06-22T02:54:20;24.50;50.10
13440;DHT22;6792;57.698;11.946;2023-06-22T02:56:49;24.50;50.10
13440;DHT22;6792;57.698;11.946;2023-06-22T02:59:18;24.50;50.10
13440;DHT22;6792;57.698;11.946;2023-06-22T03:01:50;24.50;50.10
13440;DHT22;6792;57.698;11.946;2023-06-22T03:04:22;24.50;50.20
13440;DHT22;6792;57.698;11.946;2023-06-22T03:06:51;24.50;50.30
13440;DHT22;6792;57.698;11.946;2023-06-22T03:09:23;24.50;50.20
13440;DHT22;6792;57.698;11.946;2023-06-22T03:11:52;24.50;50.10
13440;DHT22;6792;57.698;11.946;2023-06-22T03:14:21;24.50;50.10
13440;DHT22;6792;57.698;11.946;2023-06-22T03:16:50;24.50;49.60
13440;DHT22;6792;57.698;11.946;2023-06-22T03:19:20;24.50;50.10
13440;DHT22;6792;57.698;11.946;2023-06-22T03:21:49;24.50;50.20
13440;DHT22;6792;57.698;11.946;2023-06-22T03:24:18;24.50;50.20
13440;DHT22;6792;57.698;11.946;2023-06-22T03:26:48;24.50;50.10
13440;DHT22;6792;57.698;11.946;2023-06-22T03:29:19;24.50;50.10
13440;DHT22;6792;57.698;11.946;2023-06-22T03:31:48;24.50;50.10
13440;DHT22;6792;57.698;11.946;2023-06-22T03:34:17;24.50;50.10
13440;DHT22;6792;57.698;11.946;2023-06-22T03:36:50;24.50;50.00
13440;DHT22;6792;57.698;11.946;2023-06-22T03:39:19;24.50;50.00
13440;DHT22;6792;57.698;11.946;2023-06-22T03:41:48;24.50;50.00
13440;DHT22;6792;57.698;11.946;2023-06-22T03:44:18;24.40;49.90
13440;DHT22;6792;57.698;11.946;2023-06-22T03:46:47;24.50;50.00
13440;DHT22;6792;57.698;11.946;2023-06-22T03:49:16;24.50;49.90
13440;DHT22;6792;57.698;11.946;2023-06-22T03:51:45;24.50;50.00
13440;DHT22;6792;57.698;11.946;2023-06-22T03:54:14;24.50;49.90
13440;DHT22;6792;57.698;11.946;2023-06-22T03:56:44;24.50;49.90
13440;DHT22;6792;57.698;11.946;2023-06-22T03:59:13;24.50;49.80
13440;DHT22;6792;57.698;11.946;2023-06-22T04:01:42;24.50;49.80
13440;DHT22;6792;57.698;11.946;2023-06-22T04:04:12;24.50;49.80
13440;DHT22;6792;57.698;11.946;2023-06-22T04:06:41;24.50;49.30
13440;DHT22;6792;57.698;11.946;2023-06-22T04:09:10;24.50;49.90
13440;DHT22;6792;57.698;11.946;2023-06-22T04:11:40;24.60;49.90
13440;DHT22;6792;57.698;11.946;2023-06-22T04:14:09;24.60;49.90
13440;DHT22;6792;57.698;11.946;2023-06-22T04:16:38;24.60;49.80
13440;DHT22;6792;57.698;11.946;2023-06-22T04:19:07;24.60;49.70
13440;DHT22;6792;57.698;11.946;2023-06-22T04:21:38;24.60;49.70
13440;DHT22;6792;57.698;11.946;2023-06-22T04:24:07;24.60;49.80
13440;DHT22;6792;57.698;11.946;2023-06-22T04:26:37;24.60;49.70
13440;DHT22;6792;57.698;11.946;2023-06-22T04:29:06;24.60;49.70
13440;DHT22;6792;57.698;11.946;2023-06-22T04:31:36;24.60;49.80
13440;DHT22;6792;57.698;11.946;2023-06-22T04:34:06;24.50;49.10
13440;DHT22;6792;57.698;11.946;2023-06-22T04:36:37;24.60;49.10
13440;DHT22;6792;57.698;11.946;2023-06-22T04:39:08;24.60;49.20
13440;DHT22;6792;57.698;11.946;2023-06-22T04:41:37;24.60;49.20
13440;DHT22;6792;57.698;11.946;2023-06-22T04:44:13;24.60;49.10
13440;DHT22;6792;57.698;11.946;2023-06-22T04:46:44;24.60;49.10
13440;DHT22;6792;57.698;11.946;2023-06-22T04:49:13;24.60;49.80
13440;DHT22;6792;57.698;11.946;2023-06-22T04:51:43;24.60;49.70
13440;DHT22;6792;57.698;11.946;2023-06-22T04:54:12;24.70;49.70
13440;DHT22;6792;57.698;11.946;2023-06-22T04:56:41;24.70;49.80
13440;DHT22;6792;57.698;11.946;2023-06-22T04:59:10;24.60;49.10
13440;DHT22;6792;57.698;11.946;2023-06-22T05:01:40;24.60;49.70
13440;DHT22;6792;57.698;11.946;2023-06-22T05:04:10;24.70;49.80
13440;DHT22;6792;57.698;11.946;2023-06-22T05:06:39;24.70;49.80
13440;DHT22;6792;57.698;11.946;2023-06-22T05:09:08;24.70;49.70
13440;DHT22;6792;57.698;11.946;2023-06-22T05:11:39;24.70;49.80
13440;DHT22;6792;57.698;11.946;2023-06-22T05:14:08;24.80;50.50
13440;DHT22;6792;57.698;11.946;2023-06-22T05:16:37;24.80;49.80
13440;DHT22;6792;57.698;11.946;2023-06-22T05:19:07;24.80;49.80
13440;DHT22;6792;57.698;11.946;2023-06-22T05:21:36;24.80;49.70
13440;DHT22;6792;57.698;11.946;2023-06-22T05:24:06;24.80;49.80
13440;DHT22;6792;57.698;11.946;2023-06-22T05:26:35;24.80;49.80
13440;DHT22;6792;57.698;11.946;2023-06-22T05:29:05;24.80;49.80
13440;DHT22;6792;57.698;11.946;2023-06-22T05:31:34;24.80;49.90
13440;DHT22;6792;57.698;11.946;2023-06-22T05:34:03;24.80;49.90
13440;DHT22;6792;57.698;11.946;2023-06-22T05:36:32;24.80;49.80
13440;DHT22;6792;57.698;11.946;2023-06-22T05:39:11;24.80;49.80
13440;DHT22;6792;57.698;11.946;2023-06-22T05:41:41;24.80;49.80
13440;DHT22;6792;57.698;11.946;2023-06-22T05:44:11;24.80;49.90
13440;DHT22;6792;57.698;11.946;2023-06-22T05:46:42;24.80;49.80
13440;DHT22;6792;57.698;11.946;2023-06-22T05:49:14;24.90;49.80
13440;DHT22;6792;57.698;11.946;2023-06-22T05:51:44;24.90;50.40
13440;DHT22;6792;57.698;11.946;2023-06-22T05:54:13;24.90;49.80
13440;DHT22;6792;57.698;11.946;2023-06-22T05:56:43;24.90;49.70
13440;DHT22;6792;57.698;11.946;2023-06-22T05:59:12;24.90;49.70
13440;DHT22;6792;57.698;11.946;2023-06-22T06:01:41;24.90;49.70
13440;DHT22;6792;57.698;11.946;2023-06-22T06:04:10;24.90;49.70
13440;DHT22;6792;57.698;11.946;2023-06-22T06:06:39;24.90;49.70
13440;DHT22;6792;57.698;11.946;2023-06-22T06:09:09;24.90;49.70
13440;DHT22;6792;57.698;11.946;2023-06-22T06:11:39;24.90;49.80
13440;DHT22;6792;57.698;11.946;2023-06-22T06:14:08;24.90;49.70
13440;DHT22;6792;57.698;11.946;2023-06-22T06:16:37;24.90;49.70
13440;DHT22;6792;57.698;11.946;2023-06-22T06:19:06;25.00;49.70
13440;DHT22;6792;57.698;11.946;2023-06-22T06:21:35;25.00;49.70
13440;DHT22;6792;57.698;11.946;2023-06-22T06:24:05;25.00;49.70
13440;DHT22;6792;57.698;11.946;2023-06-22T06:26:35;25.10;49.60
13440;DHT22;6792;57.698;11.946;2023-06-22T06:29:04;25.10;49.60
13440;DHT22;6792;57.698;11.946;2023-06-22T06:31:33;25.10;49.60
13440;DHT22;6792;57.698;11.946;2023-06-22T06:34:02;25.20;49.70
13440;DHT22;6792;57.698;11.946;2023-06-22T06:36:32;25.20;49.60
13440;DHT22;6792;57.698;11.946;2023-06-22T06:39:01;25.20;49.60
13440;DHT22;6792;57.698;11.946;2023-06-22T06:41:31;25.20;49.60
13440;DHT22;6792;57.698;11.946;2023-06-22T06:44:00;25.20;49.60
13440;DHT22;6792;57.698;11.946;2023-06-22T06:46:29;25.20;49.60
13440;DHT22;6792;57.698;11.946;2023-06-22T06:48:58;25.30;49.70
13440;DHT22;6792;57.698;11.946;2023-06-22T06:51:28;25.40;49.70
13440;DHT22;6792;57.698;11.946;2023-06-22T06:53:57;25.40;49.70
13440;DHT22;6792;57.698;11.946;2023-06-22T06:56:26;25.50;49.70
13440;DHT22;6792;57.698;11.946;2023-06-22T06:58:55;25.50;49.60
13440;DHT22;6792;57.698;11.946;2023-06-22T07:01:24;25.60;49.60
13440;DHT22;6792;57.698;11.946;2023-06-22T07:03:53;25.60;49.60
13440;DHT22;6792;57.698;11.946;2023-06-22T07:06:23;25.60;49.50
13440;DHT22;6792;57.698;11.946;2023-06-22T07:08:53;25.70;49.50
13440;DHT22;6792;57.698;11.946;2023-06-22T07:11:23;25.70;49.50
13440;DHT22;6792;57.698;11.946;2023-06-22T07:13:52;25.80;48.90
13440;DHT22;6792;57.698;11.946;2023-06-22T07:16:22;25.90;49.40
13440;DHT22;6792;57.698;11.946;2023-06-22T07:18:53;25.90;49.60
13440;DHT22;6792;57.698;11.946;2023-06-22T07:21:27;25.90;49.30
13440;DHT22;6792;57.698;11.946;2023-06-22T07:23:56;25.90;48.70
13440;DHT22;6792;57.698;11.946;2023-06-22T07:26:25;25.90;49.30
13440;DHT22;6792;57.698;11.946;2023-06-22T07:28:57;25.90;49.10
13440;DHT22;6792;57.698;11.946;2023-06-22T07:31:28;25.90;49.10
13440;DHT22;6792;57.698;11.946;2023-06-22T07:33:57;26.00;49.20
13440;DHT22;6792;57.698;11.946;2023-06-22T07:36:33;26.00;49.10
13440;DHT22;6792;57.698;11.946;2023-06-22T07:39:08;26.00;49.00
13440;DHT22;6792;57.698;11.946;2023-06-22T07:41:39;26.00;49.00
13440;DHT22;6792;57.698;11.946;2023-06-22T07:44:09;26.10;49.00
13440;DHT22;6792;57.698;11.946;2023-06-22T07:49:16;26.10;48.80
13440;DHT22;6792;57.698;11.946;2023-06-22T07:51:46;26.10;48.80
13440;DHT22;6792;57.698;11.946;2023-06-22T07:54:15;26.10;48.80
13440;DHT22;6792;57.698;11.946;2023-06-22T07:56:45;26.20;48.90
13440;DHT22;6792;57.698;11.946;2023-06-22T07:59:15;26.20;48.80
13440;DHT22;6792;57.698;11.946;2023-06-22T08:01:44;26.20;48.80
13440;DHT22;6792;57.698;11.946;2023-06-22T08:04:13;26.30;48.80
13440;DHT22;6792;57.698;11.946;2023-06-22T08:06:42;26.30;48.10
13440;DHT22;6792;57.698;11.946;2023-06-22T08:09:12;26.30;48.60
13440;DHT22;6792;57.698;11.946;2023-06-22T08:11:41;26.30;48.50
13440;DHT22;6792;57.698;11.946;2023-06-22T08:14:10;26.30;48.50
13440;DHT22;6792;57.698;11.946;2023-06-22T08:16:40;26.30;49.00
13440;DHT22;6792;57.698;11.946;2023-06-22T08:19:09;26.30;48.30
13440;DHT22;6792;57.698;11.946;2023-06-22T08:21:39;26.30;48.30
13440;DHT22;6792;57.698;11.946;2023-06-22T08:24:09;26.20;48.30
13440;DHT22;6792;57.698;11.946;2023-06-22T08:26:38;26.20;48.30
13440;DHT22;6792;57.698;11.946;2023-06-22T08:29:07;26.20;48.30
13440;DHT22;6792;57.698;11.946;2023-06-22T08:31:37;26.20;48.30
13440;DHT22;6792;57.698;11.946;2023-06-22T08:34:06;26.30;48.30
13440;DHT22;6792;57.698;11.946;2023-06-22T08:36:35;26.30;48.40
13440;DHT22;6792;57.698;11.946;2023-06-22T08:39:06;26.30;48.20
13440;DHT22;6792;57.698;11.946;2023-06-22T08:41:36;26.20;48.20
13440;DHT22;6792;57.698;11.946;2023-06-22T08:44:06;26.20;48.20
13440;DHT22;6792;57.698;11.946;2023-06-22T08:46:36;26.20;48.20
13440;DHT22;6792;57.698;11.946;2023-06-22T08:49:07;26.20;48.20
13440;DHT22;6792;57.698;11.946;2023-06-22T08:51:38;26.20;48.20
13440;DHT22;6792;57.698;11.946;2023-06-22T08:54:07;26.20;48.30
13440;DHT22;6792;57.698;11.946;2023-06-22T08:56:38;26.20;48.20
13440;DHT22;6792;57.698;11.946;2023-06-22T08:59:07;26.20;48.30
13440;DHT22;6792;57.698;11.946;2023-06-22T09:01:37;26.20;48.30
13440;DHT22;6792;57.698;11.946;2023-06-22T09:04:06;26.20;48.30
13440;DHT22;6792;57.698;11.946;2023-06-22T09:06:37;26.20;48.30
13440;DHT22;6792;57.698;11.946;2023-06-22T09:09:08;26.30;48.40
13440;DHT22;6792;57.698;11.946;2023-06-22T09:11:38;26.30;48.30
13440;DHT22;6792;57.698;11.946;2023-06-22T09:14:08;26.30;48.30
13440;DHT22;6792;57.698;11.946;2023-06-22T09:16:37;26.40;48.50
13440;DHT22;6792;57.698;11.946;2023-06-22T09:19:07;26.40;48.50
13440;DHT22;6792;57.698;11.946;2023-06-22T09:21:37;26.40;48.50
13440;DHT22;6792;57.698;11.946;2023-06-22T09:24:08;26.50;48.50
13440;DHT22;6792;57.698;11.946;2023-06-22T09:26:37;26.50;48.50
13440;DHT22;6792;57.698;11.946;2023-06-22T09:29:07;26.50;48.40
13440;DHT22;6792;57.698;11.946;2023-06-22T09:31:36;26.50;48.40
13440;DHT22;6792;57.698;11.946;2023-06-22T09:34:06;26.50;48.90
13440;DHT22;6792;57.698;11.946;2023-06-22T09:36:35;26.60;48.30
13440;DHT22;6792;57.698;11.946;2023-06-22T09:39:04;26.60;48.20
13440;DHT22;6792;57.698;11.946;2023-06-22T09:41:34;26.70;48.10
13440;DHT22;6792;57.698;11.946;2023-06-22T09:44:04;26.80;48.10
13440;DHT22;6792;57.698;11.946;2023-06-22T09:46:33;26.80;47.90
13440;DHT22;6792;57.698;11.946;2023-06-22T09:49:02;26.90;47.80
13440;DHT22;6792;57.698;11.946;2023-06-22T09:51:31;26.90;47.10
13440;DHT22;6792;57.698;11.946;2023-06-22T09:54:01;26.90;47.60
13440;DHT22;6792;57.698;11.946;2023-06-22T09:56:30;27.00;47.50
13440;DHT22;6792;57.698;11.946;2023-06-22T09:58:59;27.00;47.50
13440;DHT22;6792;57.698;11.946;2023-06-22T10:01:28;27.00;47.50
13440;DHT22;6792;57.698;11.946;2023-06-22T10:03:58;27.10;47.50
13440;DHT22;6792;57.698;11.946;2023-06-22T10:06:27;27.10;47.40
13440;DHT22;6792;57.698;11.946;2023-06-22T10:08:56;27.10;47.40
13440;DHT22;6792;57.698;11.946;2023-06-22T10:11:25;27.20;47.40
13440;DHT22;6792;57.698;11.946;2023-06-22T10:13:57;27.30;46.90
13440;DHT22;6792;57.698;11.946;2023-06-22T10:16:30;27.30;47.40
13440;DHT22;6792;57.698;11.946;2023-06-22T10:19:00;27.30;47.30
13440;DHT22;6792;57.698;11.946;2023-06-22T10:21:29;27.30;47.20
13440;DHT22;6792;57.698;11.946;2023-06-22T10:23:59;27.30;47.10
13440;DHT22;6792;57.698;11.946;2023-06-22T10:26:30;27.30;47.10
13440;DHT22;6792;57.698;11.946;2023-06-22T10:28:59;27.40;47.20
13440;DHT22;6792;57.698;11.946;2023-06-22T10:31:29;27.40;47.10
13440;DHT22;6792;57.698;11.946;2023-06-22T10:33:58;27.40;47.10
13440;DHT22;6792;57.698;11.946;2023-06-22T10:36:28;27.40;47.10
13440;DHT22;6792;57.698;11.946;2023-06-22T10:38:57;27.50;47.30
13440;DHT22;6792;57.698;11.946;2023-06-22T10:41:27;27.50;47.20
13440;DHT22;6792;57.698;11.946;2023-06-22T10:43:58;27.60;47.20
13440;DHT22;6792;57.698;11.946;2023-06-22T10:46:27;27.60;47.10
13440;DHT22;6792;57.698;11.946;2023-06-22T10:48:56;27.60;47.00
13440;DHT22;6792;57.698;11.946;2023-06-22T10:51:26;27.60;46.90
13440;DHT22;6792;57.698;11.946;2023-06-22T10:53:56;27.60;46.90
13440;DHT22;6792;57.698;11.946;2023-06-22T10:56:25;27.60;46.90
13440;DHT22;6792;57.698;11.946;2023-06-22T10:58:54;27.60;47.00
13440;DHT22;6792;57.698;11.946;2023-06-22T11:01:23;27.70;47.00
13440;DHT22;6792;57.698;11.946;2023-06-22T11:03:53;27.60;46.90
13440;DHT22;6792;57.698;11.946;2023-06-22T11:06:22;27.70;47.00
13440;DHT22;6792;57.698;11.946;2023-06-22T11:08:51;27.70;46.90
13440;DHT22;6792;57.698;11.946;2023-06-22T11:11:20;27.80;46.90
13440;DHT22;6792;57.698;11.946;2023-06-22T11:13:50;27.80;46.90
13440;DHT22;6792;57.698;11.946;2023-06-22T11:16:19;27.80;46.90
13440;DHT22;6792;57.698;11.946;2023-06-22T11:18:48;27.90;47.00
13440;DHT22;6792;57.698;11.946;2023-06-22T11:21:17;27.90;46.90
13440;DHT22;6792;57.698;11.946;2023-06-22T11:23:47;27.90;46.80
13440;DHT22;6792;57.698;11.946;2023-06-22T11:26:16;27.90;46.70
13440;DHT22;6792;57.698;11.946;2023-06-22T11:28:46;27.90;46.60
13440;DHT22;6792;57.698;11.946;2023-06-22T11:31:15;27.90;46.70
13440;DHT22;6792;57.698;11.946;2023-06-22T11:33:45;28.00;46.70
13440;DHT22;6792;57.698;11.946;2023-06-22T11:36:15;28.00;46.70
13440;DHT22;6792;57.698;11.946;2023-06-22T11:38:45;28.10;46.10
13440;DHT22;6792;57.698;11.946;2023-06-22T11:41:14;28.10;46.50
13440;DHT22;6792;57.698;11.946;2023-06-22T11:43:43;28.10;46.40
13440;DHT22;6792;57.698;11.946;2023-06-22T11:46:13;28.10;46.40
13440;DHT22;6792;57.698;11.946;2023-06-22T11:48:42;28.20;46.30
13440;DHT22;6792;57.698;11.946;2023-06-22T11:51:12;28.20;46.20
13440;DHT22;6792;57.698;11.946;2023-06-22T11:53:41;28.20;46.20
13440;DHT22;6792;57.698;11.946;2023-06-22T11:56:10;28.20;46.10
13440;DHT22;6792;57.698;11.946;2023-06-22T11:58:39;28.30;46.10
13440;DHT22;6792;57.698;11.946;2023-06-22T12:01:08;28.40;46.00
13440;DHT22;6792;57.698;11.946;2023-06-22T12:03:38;28.40;45.90
13440;DHT22;6792;57.698;11.946;2023-06-22T12:06:07;28.50;45.80
13440;DHT22;6792;57.698;11.946;2023-06-22T12:08:37;28.50;45.80
13440;DHT22;6792;57.698;11.946;2023-06-22T12:11:06;28.60;45.70
13440;DHT22;6792;57.698;11.946;2023-06-22T12:13:35;28.60;45.60
13440;DHT22;6792;57.698;11.946;2023-06-22T12:16:05;28.60;45.50
13440;DHT22;6792;57.698;11.946;2023-06-22T12:18:34;28.60;45.40
13440;DHT22;6792;57.698;11.946;2023-06-22T12:21:04;28.70;45.40
13440;DHT22;6792;57.698;11.946;2023-06-22T12:23:33;28.70;45.30
13440;DHT22;6792;57.698;11.946;2023-06-22T12:26:02;28.70;45.20
13440;DHT22;6792;57.698;11.946;2023-06-22T12:28:32;28.80;45.20
13440;DHT22;6792;57.698;11.946;2023-06-22T12:31:01;28.80;45.20
13440;DHT22;6792;57.698;11.946;2023-06-22T12:33:30;28.80;45.10
13440;DHT22;6792;57.698;11.946;2023-06-22T12:36:00;28.90;45.10
13440;DHT22;6792;57.698;11.946;2023-06-22T12:38:30;28.90;44.90
13440;DHT22;6792;57.698;11.946;2023-06-22T12:40:59;29.00;44.90
13440;DHT22;6792;57.698;11.946;2023-06-22T12:43:28;29.10;44.80
13440;DHT22;6792;57.698;11.946;2023-06-22T12:45:58;29.20;44.80
13440;DHT22;6792;57.698;11.946;2023-06-22T12:48:28;29.20;44.60
13440;DHT22;6792;57.698;11.946;2023-06-22T12:50:57;29.20;44.50
13440;DHT22;6792;57.698;11.946;2023-06-22T12:53:27;29.30;44.40
13440;DHT22;6792;57.698;11.946;2023-06-22T12:55:56;29.40;44.30
13440;DHT22;6792;57.698;11.946;2023-06-22T12:58:26;29.50;44.30
13440;DHT22;6792;57.698;11.946;2023-06-22T13:00:55;29.50;44.10
13440;DHT22;6792;57.698;11.946;2023-06-22T13:03:25;29.60;44.00
13440;DHT22;6792;57.698;11.946;2023-06-22T13:05:55;29.70;43.90
13440;DHT22;6792;57.698;11.946;2023-06-22T13:08:24;29.80;43.80
13440;DHT22;6792;57.698;11.946;2023-06-22T13:10:54;29.80;43.60
13440;DHT22;6792;57.698;11.946;2023-06-22T13:13:25;29.90;43.50
13440;DHT22;6792;57.698;11.946;2023-06-22T13:15:55;30.00;43.50
13440;DHT22;6792;57.698;11.946;2023-06-22T13:18:25;30.10;43.20
13440;DHT22;6792;57.698;11.946;2023-06-22T13:20:55;30.20;43.10
13440;DHT22;6792;57.698;11.946;2023-06-22T13:23:28;30.30;42.40
13440;DHT22;6792;57.698;11.946;2023-06-22T13:25:58;30.30;42.40
13440;DHT22;6792;57.698;11.946;2023-06-22T13:28:29;30.50;42.30
13440;DHT22;6792;57.698;11.946;2023-06-22T13:31:04;30.70;42.80
13440;DHT22;6792;57.698;11.946;2023-06-22T13:33:34;30.80;42.00
13440;DHT22;6792;57.698;11.946;2023-06-22T13:36:11;30.80;41.70
13440;DHT22;6792;57.698;11.946;2023-06-22T13:41:20;30.90;41.80
13440;DHT22;6792;57.698;11.946;2023-06-22T13:43:58;31.10;41.70
13440;DHT22;6792;57.698;11.946;2023-06-22T13:46:30;31.20;41.40
13440;DHT22;6792;57.698;11.946;2023-06-22T13:49:06;31.40;41.30
13440;DHT22;6792;57.698;11.946;2023-06-22T13:51:36;31.60;41.20
13440;DHT22;6792;57.698;11.946;2023-06-22T13:54:08;31.90;41.70
13440;DHT22;6792;57.698;11.946;2023-06-22T13:56:40;32.30;41.00
13440;DHT22;6792;57.698;11.946;2023-06-22T14:01:50;33.70;40.70
13440;DHT22;6792;57.698;11.946;2023-06-22T14:04:19;34.60;40.00
13440;DHT22;6792;57.698;11.946;2023-06-22T14:06:48;35.40;39.20
13440;DHT22;6792;57.698;11.946;2023-06-22T14:09:18;36.20;38.00
13440;DHT22;6792;57.698;11.946;2023-06-22T14:11:48;36.90;36.20
13440;DHT22;6792;57.698;11.946;2023-06-22T14:14:20;37.50;35.80
13440;DHT22;6792;57.698;11.946;2023-06-22T14:16:51;38.10;34.10
13440;DHT22;6792;57.698;11.946;2023-06-22T14:19:23;38.60;34.20
13440;DHT22;6792;57.698;11.946;2023-06-22T14:21:53;39.00;33.50
13440;DHT22;6792;57.698;11.946;2023-06-22T14:24:22;39.30;32.80
13440;DHT22;6792;57.698;11.946;2023-06-22T14:26:52;39.50;32.20
13440;DHT22;6792;57.698;11.946;2023-06-22T14:29:21;39.50;31.60
13440;DHT22;6792;57.698;11.946;2023-06-22T14:31:51;39.10;30.60
13440;DHT22;6792;57.698;11.946;2023-06-22T14:34:20;38.80;31.10
13440;DHT22;6792;57.698;11.946;2023-06-22T14:36:49;38.20;30.50
13440;DHT22;6792;57.698;11.946;2023-06-22T14:39:19;37.60;31.30
13440;DHT22;6792;57.698;11.946;2023-06-22T14:41:48;36.90;30.90
13440;DHT22;6792;57.698;11.946;2023-06-22T14:44:18;36.40;32.00
13440;DHT22;6792;57.698;11.946;2023-06-22T14:46:47;35.80;32.40
13440;DHT22;6792;57.698;11.946;2023-06-22T14:49:16;35.30;32.70
13440;DHT22;6792;57.698;11.946;2023-06-22T14:51:45;34.80;33.10
13440;DHT22;6792;57.698;11.946;2023-06-22T14:54:15;34.30;33.40
13440;DHT22;6792;57.698;11.946;2023-06-22T14:56:44;33.90;33.80
13440;DHT22;6792;57.698;11.946;2023-06-22T14:59:13;33.60;34.20
13440;DHT22;6792;57.698;11.946;2023-06-22T15:01:42;33.20;34.50
13440;DHT22;6792;57.698;11.946;2023-06-22T15:04:12;33.00;34.80
13440;DHT22;6792;57.698;11.946;2023-06-22T15:06:41;32.80;35.00
13440;DHT22;6792;57.698;11.946;2023-06-22T15:09:12;32.50;35.20
13440;DHT22;6792;57.698;11.946;2023-06-22T15:11:41;32.20;35.30
13440;DHT22;6792;57.698;11.946;2023-06-22T15:14:10;32.00;34.90
13440;DHT22;6792;57.698;11.946;2023-06-22T15:16:41;31.80;35.70
13440;DHT22;6792;57.698;11.946;2023-06-22T15:19:11;31.60;35.80
13440;DHT22;6792;57.698;11.946;2023-06-22T15:21:41;31.40;36.00
13440;DHT22;6792;57.698;11.946;2023-06-22T15:24:10;31.30;36.30
13440;DHT22;6792;57.698;11.946;2023-06-22T15:26:39;31.10;36.30
13440;DHT22;6792;57.698;11.946;2023-06-22T15:29:08;31.00;36.40
13440;DHT22;6792;57.698;11.946;2023-06-22T15:31:38;30.90;36.60
13440;DHT22;6792;57.698;11.946;2023-06-22T15:34:07;30.80;36.60
13440;DHT22;6792;57.698;11.946;2023-06-22T15:36:38;30.70;36.60
13440;DHT22;6792;57.698;11.946;2023-06-22T15:39:08;30.60;36.10
13440;DHT22;6792;57.698;11.946;2023-06-22T15:41:40;30.50;36.10
13440;DHT22;6792;57.698;11.946;2023-06-22T15:44:10;30.50;36.50
13440;DHT22;6792;57.698;11.946;2023-06-22T15:46:39;30.40;36.10
13440;DHT22;6792;57.698;11.946;2023-06-22T15:49:08;30.30;35.40
13440;DHT22;6792;57.698;11.946;2023-06-22T15:51:38;30.20;35.20
13440;DHT22;6792;57.698;11.946;2023-06-22T15:54:07;30.10;35.70